createdAt,value
2019-02-17T00:00:05.009Z,39.98
2019-02-17T00:02:35.999Z,42.60
2019-02-17T00:05:06.938Z,34.27
2019-02-17T00:07:38.952Z,20.27
2019-02-17T00:10:09.851Z,12.85
2019-02-17T00:12:41.872Z,12.40
2019-02-17T00:15:13.034Z,13.50
2019-02-17T00:17:43.655Z,11.75
2019-02-17T00:20:14.457Z,12.75
2019-02-17T00:22:45.217Z,11.40
2019-02-17T00:25:16.275Z,10.90
2019-02-17T00:27:47.068Z,10.88
2019-02-17T00:30:18.587Z,11.50
2019-02-17T00:32:49.323Z,11.12
2019-02-17T00:35:20.097Z,10.98
2019-02-17T00:37:51.113Z,11.35
2019-02-17T00:40:22.196Z,10.78
2019-02-17T00:42:54.274Z,9.93
2019-02-17T00:45:24.926Z,11.78
2019-02-17T00:47:55.822Z,10.32
2019-02-17T00:50:26.465Z,10.18
2019-02-17T00:52:57.324Z,10.50
2019-02-17T00:55:27.994Z,10.45
2019-02-17T00:57:58.730Z,10.07
2019-02-17T01:00:29.467Z,10.10
2019-02-17T01:03:00.131Z,10.68
2019-02-17T01:05:33.226Z,10.40
2019-02-17T01:08:06.927Z,10.53
2019-02-17T01:10:37.757Z,10.30
2019-02-17T01:13:08.568Z,10.35
2019-02-17T01:15:39.417Z,10.77
2019-02-17T01:18:10.097Z,10.03
2019-02-17T01:20:41.039Z,10.32
2019-02-17T01:23:11.719Z,9.58
2019-02-17T01:25:42.716Z,8.77
2019-02-17T01:28:13.417Z,9.60
2019-02-17T01:30:44.486Z,10.43
2019-02-17T01:33:15.353Z,9.53
2019-02-17T01:35:46.226Z,10.90
2019-02-17T01:38:16.823Z,10.03
2019-02-17T01:40:48.846Z,9.55
2019-02-17T01:43:19.407Z,10.00
2019-02-17T01:45:50.070Z,9.30
2019-02-17T01:48:20.903Z,10.18
2019-02-17T01:50:51.483Z,9.70
2019-02-17T01:53:22.161Z,11.43
2019-02-17T01:55:52.883Z,10.10
2019-02-17T01:58:24.096Z,9.70
2019-02-17T02:00:54.932Z,10.15
2019-02-17T02:03:25.806Z,10.90
2019-02-17T02:05:56.427Z,9.98
2019-02-17T02:08:27.221Z,10.08
2019-02-17T02:10:57.972Z,10.60
2019-02-17T02:13:29.787Z,9.70
2019-02-17T02:16:00.666Z,11.00
2019-02-17T02:18:32.287Z,10.28
2019-02-17T02:21:02.932Z,9.55
2019-02-17T02:23:33.642Z,10.18
2019-02-17T02:26:04.712Z,10.00
2019-02-17T02:28:35.544Z,11.37
2019-02-17T02:31:06.345Z,10.70
2019-02-17T02:33:37.370Z,10.50
2019-02-17T02:36:07.903Z,9.85
2019-02-17T02:38:38.687Z,9.70
2019-02-17T02:41:09.363Z,10.58
2019-02-17T02:43:46.588Z,10.38
2019-02-17T02:46:17.397Z,9.78
2019-02-17T02:48:48.387Z,10.53
2019-02-17T02:51:19.176Z,11.80
2019-02-17T02:53:50.206Z,10.25
2019-02-17T02:56:22.225Z,10.45
2019-02-17T02:58:53.051Z,10.30
2019-02-17T03:01:23.852Z,10.28
2019-02-17T03:03:54.530Z,10.58
2019-02-17T03:06:37.903Z,10.53
2019-02-17T03:09:09.083Z,10.65
2019-02-17T03:11:40.401Z,9.95
2019-02-17T03:14:13.453Z,11.18
2019-02-17T03:16:44.165Z,10.30
2019-02-17T03:19:14.817Z,9.65
2019-02-17T03:21:45.484Z,11.20
2019-02-17T03:24:18.840Z,11.50
2019-02-17T03:26:49.784Z,10.38
2019-02-17T03:29:20.425Z,10.43
2019-02-17T03:31:51.286Z,10.30
2019-02-17T03:34:23.033Z,9.50
2019-02-17T03:36:53.793Z,10.28
2019-02-17T03:39:24.500Z,10.23
2019-02-17T03:41:55.771Z,11.20
2019-02-17T03:44:26.674Z,10.85
2019-02-17T03:46:57.299Z,11.20
2019-02-17T03:49:28.197Z,10.40
2019-02-17T03:51:59.223Z,9.25
2019-02-17T03:54:29.842Z,11.22
2019-02-17T03:57:20.837Z,10.27
2019-02-17T03:59:51.484Z,10.00
2019-02-17T04:02:22.357Z,10.07
2019-02-17T04:04:53.193Z,10.30
2019-02-17T04:07:24.304Z,9.98
2019-02-17T04:09:55.132Z,10.85
2019-02-17T04:12:25.906Z,10.50
2019-02-17T04:14:57.793Z,10.10
2019-02-17T04:17:28.942Z,9.53
2019-02-17T04:19:59.688Z,11.45
2019-02-17T04:22:30.440Z,11.28
2019-02-17T04:25:01.305Z,11.60
2019-02-17T04:27:31.848Z,11.07
2019-02-17T04:30:02.356Z,10.90
2019-02-17T04:32:33.103Z,10.68
2019-02-17T04:35:03.808Z,12.10
2019-02-17T04:37:34.374Z,11.85
2019-02-17T04:40:05.409Z,11.48
2019-02-17T04:42:36.082Z,12.50
2019-02-17T04:45:08.269Z,12.43
2019-02-17T04:47:38.951Z,12.47
2019-02-17T04:50:09.762Z,12.53
2019-02-17T04:52:40.849Z,13.05
2019-02-17T04:55:11.615Z,12.98
2019-02-17T04:57:45.891Z,12.53
2019-02-17T05:00:16.696Z,13.75
2019-02-17T05:02:47.621Z,15.15
2019-02-17T05:05:18.447Z,12.75
2019-02-17T05:07:48.951Z,13.62
2019-02-17T05:10:19.520Z,13.88
2019-02-17T05:12:50.231Z,13.35
2019-02-17T05:15:20.910Z,13.38
2019-02-17T05:17:51.615Z,13.33
2019-02-17T05:20:22.362Z,13.60
2019-02-17T05:22:52.986Z,13.72
2019-02-17T05:25:26.153Z,13.13
2019-02-17T05:27:57.905Z,12.33
2019-02-17T05:30:28.691Z,11.63
2019-02-17T05:32:59.392Z,11.65
2019-02-17T05:35:30.126Z,13.05
2019-02-17T05:38:02.009Z,11.83
2019-02-17T05:40:32.823Z,12.87
2019-02-17T05:43:03.914Z,13.13
2019-02-17T05:45:34.566Z,12.00
2019-02-17T05:48:05.635Z,13.03
2019-02-17T05:50:36.919Z,12.27
2019-02-17T05:53:08.151Z,12.70
2019-02-17T05:55:38.779Z,12.53
2019-02-17T05:58:09.990Z,11.70
2019-02-17T06:00:41.457Z,12.33
2019-02-17T06:03:11.908Z,12.40
2019-02-17T06:05:42.459Z,12.87
2019-02-17T06:08:13.241Z,12.90
2019-02-17T06:10:44.192Z,12.00
2019-02-17T06:13:14.967Z,13.20
2019-02-17T06:15:45.931Z,13.73
2019-02-17T06:18:18.125Z,14.97
2019-02-17T06:20:48.978Z,15.03
2019-02-17T06:23:19.468Z,15.97
2019-02-17T06:25:50.479Z,14.63
2019-02-17T06:28:21.457Z,16.10
2019-02-17T06:30:52.005Z,15.03
2019-02-17T06:33:22.720Z,15.03
2019-02-17T06:35:53.707Z,17.93
2019-02-17T06:38:24.565Z,15.90
2019-02-17T06:40:55.116Z,16.50
2019-02-17T06:43:26.177Z,16.10
2019-02-17T06:45:56.907Z,15.40
2019-02-17T06:48:27.654Z,16.63
2019-02-17T06:50:58.289Z,17.20
2019-02-17T06:53:30.643Z,17.17
2019-02-17T06:56:13.124Z,16.10
2019-02-17T06:58:44.312Z,17.70
2019-02-17T07:01:24.149Z,17.17
2019-02-17T07:03:48.548Z,17.10
2019-02-17T07:06:34.945Z,16.50
2019-02-17T07:09:06.250Z,17.13
2019-02-17T07:11:37.340Z,17.23
2019-02-17T07:14:07.795Z,17.83
2019-02-17T07:16:38.840Z,17.97
2019-02-17T07:19:12.002Z,17.37
2019-02-17T07:21:42.962Z,18.27
2019-02-17T07:24:13.570Z,18.20
2019-02-17T07:26:44.109Z,17.57
2019-02-17T07:29:16.769Z,18.67
2019-02-17T07:31:47.318Z,20.20
2019-02-17T07:34:17.728Z,21.00
2019-02-17T07:36:48.556Z,17.83
2019-02-17T07:39:21.638Z,18.70
2019-02-17T07:41:52.929Z,19.50
2019-02-17T07:44:23.606Z,20.63
2019-02-17T07:46:55.079Z,21.60
2019-02-17T07:49:25.913Z,22.47
2019-02-17T07:51:57.812Z,19.73
2019-02-17T07:54:28.485Z,19.47
2019-02-17T07:57:00.055Z,21.03
2019-02-17T07:59:30.530Z,20.90
2019-02-17T08:02:01.522Z,23.43
2019-02-17T08:04:32.429Z,21.17
2019-02-17T08:07:03.343Z,26.50
2019-02-17T08:09:33.945Z,22.70
2019-02-17T08:12:04.883Z,22.10
2019-02-17T08:14:35.950Z,23.20
2019-02-17T08:17:06.891Z,23.07
2019-02-17T08:19:39.706Z,24.80
2019-02-17T08:22:17.855Z,25.63
2019-02-17T08:24:49.390Z,25.37
2019-02-17T08:27:19.900Z,29.20
2019-02-17T08:29:51.639Z,30.60
2019-02-17T08:32:23.794Z,28.97
2019-02-17T08:34:54.498Z,31.00
2019-02-17T08:37:25.425Z,28.70
2019-02-17T08:39:56.630Z,29.97
2019-02-17T08:42:27.702Z,28.70
2019-02-17T08:44:58.379Z,27.30
2019-02-17T08:47:29.158Z,27.60
2019-02-17T08:49:59.979Z,29.97
2019-02-17T08:52:30.914Z,27.53
2019-02-17T08:55:03.771Z,27.60
2019-02-17T08:57:34.381Z,26.40
2019-02-17T09:00:05.214Z,28.13
2019-02-17T09:02:36.729Z,29.00
2019-02-17T09:05:07.400Z,20.73
2019-02-17T09:07:38.576Z,21.63
2019-02-17T09:10:10.767Z,15.17
2019-02-17T09:12:41.561Z,15.67
2019-02-17T09:15:13.222Z,16.17
2019-02-17T09:17:44.034Z,15.70
2019-02-17T09:20:15.054Z,16.77
2019-02-17T09:22:46.971Z,16.47
2019-02-17T09:25:17.623Z,17.00
2019-02-17T09:27:48.355Z,18.47
2019-02-17T09:30:19.653Z,15.67
2019-02-17T09:32:50.465Z,17.60
2019-02-17T09:35:26.716Z,16.07
2019-02-17T09:37:58.487Z,17.40
2019-02-17T09:40:30.696Z,15.57
2019-02-17T09:43:05.140Z,16.47
2019-02-17T09:45:35.910Z,17.20
2019-02-17T09:48:06.979Z,15.30
2019-02-17T09:50:37.952Z,15.77
2019-02-17T09:53:08.764Z,15.93
2019-02-17T09:55:39.651Z,17.30
2019-02-17T09:58:11.494Z,14.73
2019-02-17T10:00:42.319Z,16.43
2019-02-17T10:03:13.381Z,17.20
2019-02-17T10:05:44.278Z,16.87
2019-02-17T10:08:15.510Z,16.80
2019-02-17T10:10:46.555Z,18.53
2019-02-17T10:13:18.686Z,17.00
2019-02-17T10:15:49.935Z,16.17
2019-02-17T10:18:23.484Z,16.93
2019-02-17T10:20:54.974Z,16.87
2019-02-17T10:23:27.961Z,15.53
2019-02-17T10:25:58.688Z,16.13
2019-02-17T10:28:30.663Z,16.80
2019-02-17T10:31:02.568Z,16.97
2019-02-17T10:33:33.593Z,17.73
2019-02-17T10:36:04.359Z,17.73
2019-02-17T10:38:35.439Z,16.60
2019-02-17T10:41:06.500Z,15.90
2019-02-17T10:43:38.171Z,17.23
2019-02-17T10:46:09.061Z,15.53
2019-02-17T10:48:40.440Z,16.60
2019-02-17T10:51:11.810Z,14.87
2019-02-17T10:53:42.728Z,16.80
2019-02-17T10:56:14.048Z,14.90
2019-02-17T10:58:45.552Z,15.50
2019-02-17T11:01:17.182Z,15.37
2019-02-17T11:04:03.493Z,13.80
2019-02-17T11:06:34.610Z,14.30
2019-02-17T11:09:19.044Z,14.87
2019-02-17T11:11:49.779Z,14.33
2019-02-17T11:14:20.726Z,14.17
2019-02-17T11:16:52.910Z,12.77
2019-02-17T11:19:23.470Z,12.83
2019-02-17T11:21:54.546Z,16.07
2019-02-17T11:24:29.592Z,19.53
2019-02-17T11:27:01.055Z,21.00
2019-02-17T11:29:32.443Z,19.60
2019-02-17T11:32:04.097Z,21.40
2019-02-17T11:34:39.719Z,22.10
2019-02-17T11:37:10.382Z,23.23
2019-02-17T11:39:41.256Z,21.47
2019-02-17T11:42:11.737Z,23.30
2019-02-17T11:44:42.691Z,22.57
2019-02-17T11:47:13.209Z,22.03
2019-02-17T11:49:43.856Z,21.20
2019-02-17T11:52:14.555Z,21.47
2019-02-17T11:54:44.947Z,21.80
2019-02-17T11:57:15.641Z,22.80
2019-02-17T11:59:46.688Z,21.50
2019-02-17T12:02:24.714Z,22.50
2019-02-17T12:04:50.246Z,20.80
2019-02-17T12:07:20.798Z,21.23
2019-02-17T12:09:51.560Z,22.80
2019-02-17T12:12:22.588Z,21.37
2019-02-17T12:14:53.240Z,22.43
2019-02-17T12:17:23.995Z,21.63
2019-02-17T12:20:04.299Z,21.63
2019-02-17T12:22:42.915Z,21.90
2019-02-17T12:25:52.013Z,21.60
2019-02-17T12:28:42.419Z,21.07
2019-02-17T12:31:18.156Z,21.73
2019-02-17T12:33:50.946Z,22.60
2019-02-17T12:36:22.908Z,19.40
2019-02-17T12:38:55.973Z,20.33
2019-02-17T12:41:27.470Z,21.30
2019-02-17T12:43:59.339Z,20.33
2019-02-17T12:46:31.546Z,20.90
2019-02-17T12:49:02.058Z,20.83
2019-02-17T12:51:32.851Z,21.57
2019-02-17T12:54:03.566Z,22.10
2019-02-17T12:56:33.888Z,23.00
2019-02-17T12:59:04.540Z,21.70
2019-02-17T13:01:35.519Z,22.37
2019-02-17T13:04:06.020Z,21.87
2019-02-17T13:06:36.655Z,20.33
2019-02-17T13:09:09.482Z,22.03
2019-02-17T13:11:40.137Z,21.60
2019-02-17T13:14:12.272Z,20.60
2019-02-17T13:16:43.832Z,17.30
2019-02-17T13:19:14.880Z,18.67
2019-02-17T13:21:45.585Z,19.23
2019-02-17T13:24:16.269Z,19.37
2019-02-17T13:26:47.600Z,20.13
2019-02-17T13:29:19.242Z,18.43
2019-02-17T13:31:50.227Z,19.83
2019-02-17T13:34:21.004Z,18.13
2019-02-17T13:36:51.856Z,18.63
2019-02-17T13:39:22.607Z,20.10
2019-02-17T13:41:53.530Z,18.17
2019-02-17T13:44:24.662Z,17.90
2019-02-17T13:46:55.827Z,18.27
2019-02-17T13:49:26.634Z,18.93
2019-02-17T13:51:57.718Z,19.00
2019-02-17T13:54:28.550Z,21.60
2019-02-17T13:56:59.629Z,19.20
2019-02-17T13:59:30.486Z,19.07
2019-02-17T14:02:03.393Z,20.37
2019-02-17T14:04:34.513Z,20.70
2019-02-17T14:07:05.395Z,19.07
2019-02-17T14:09:35.966Z,18.57
2019-02-17T14:12:06.596Z,19.53
2019-02-17T14:14:38.894Z,20.33
2019-02-17T14:17:10.148Z,20.60
2019-02-17T14:19:41.064Z,20.70
2019-02-17T14:22:13.066Z,21.07
2019-02-17T14:24:43.493Z,18.30
2019-02-17T14:27:14.478Z,18.97
2019-02-17T14:29:45.194Z,20.03
2019-02-17T14:32:16.632Z,20.03
2019-02-17T14:34:48.794Z,18.20
2019-02-17T14:37:19.763Z,18.00
2019-02-17T14:39:52.410Z,20.10
2019-02-17T14:42:23.790Z,18.77
2019-02-17T14:44:54.956Z,19.53
2019-02-17T14:47:25.571Z,20.07
2019-02-17T14:49:56.874Z,20.00
2019-02-17T14:52:27.887Z,20.77
2019-02-17T14:54:59.589Z,22.20
2019-02-17T14:57:30.163Z,24.40
2019-02-17T15:00:01.801Z,28.70
2019-02-17T15:02:32.817Z,24.60
2019-02-17T15:05:03.503Z,20.87
2019-02-17T15:07:36.856Z,24.17
2019-02-17T15:10:09.063Z,23.83
2019-02-17T15:12:39.823Z,22.73
2019-02-17T15:15:11.386Z,21.37
2019-02-17T15:17:42.193Z,25.27
2019-02-17T15:20:13.399Z,23.87
2019-02-17T15:22:44.752Z,21.87
2019-02-17T15:25:17.583Z,20.27
2019-02-17T15:27:49.017Z,18.87
2019-02-17T15:30:20.575Z,19.80
2019-02-17T15:32:50.906Z,20.57
2019-02-17T15:35:22.527Z,20.00
2019-02-17T15:37:55.840Z,19.80
2019-02-17T15:40:26.773Z,18.70
2019-02-17T15:42:57.110Z,20.10
2019-02-17T15:45:28.062Z,21.80
2019-02-17T15:47:58.707Z,22.67
2019-02-17T15:50:29.114Z,25.90
2019-02-17T15:52:59.555Z,28.80
2019-02-17T15:55:30.030Z,28.40
2019-02-17T15:58:01.221Z,29.27
2019-02-17T16:00:36.274Z,30.50
2019-02-17T16:03:06.842Z,32.17
2019-02-17T16:05:37.412Z,33.50
2019-02-17T16:08:08.230Z,33.53
2019-02-17T16:10:40.722Z,34.50
2019-02-17T16:13:11.747Z,37.77
2019-02-17T16:15:43.020Z,43.87
2019-02-17T16:18:13.562Z,45.80
2019-02-17T16:20:45.716Z,48.27
2019-02-17T16:23:16.476Z,55.00
2019-02-17T16:25:49.722Z,57.97
2019-02-17T16:28:20.763Z,59.73
2019-02-17T16:30:51.576Z,81.83
2019-02-17T16:33:22.750Z,68.27
2019-02-17T16:35:53.094Z,66.23
2019-02-17T16:38:24.206Z,72.20
2019-02-17T16:40:59.750Z,65.53
2019-02-17T16:43:31.748Z,81.10
2019-02-17T16:46:02.211Z,79.20
2019-02-17T16:48:35.325Z,88.07
2019-02-17T16:51:06.166Z,96.33
2019-02-17T16:53:37.593Z,68.73
2019-02-17T16:56:08.494Z,83.97
2019-02-17T16:58:39.464Z,90.63
2019-02-17T17:01:13.033Z,55.80
2019-02-17T17:03:46.120Z,51.67
2019-02-17T17:06:19.257Z,58.80
2019-02-17T17:08:50.050Z,60.60
2019-02-17T17:11:20.839Z,45.03
2019-02-17T17:13:51.876Z,47.90
2019-02-17T17:16:25.756Z,45.03
2019-02-17T17:18:56.659Z,44.77
2019-02-17T17:21:27.811Z,35.80
2019-02-17T17:24:01.288Z,43.47
2019-02-17T17:26:31.778Z,44.60
2019-02-17T17:29:02.737Z,38.90
2019-02-17T17:31:34.748Z,48.97
2019-02-17T17:34:05.783Z,34.27
2019-02-17T17:36:38.824Z,43.10
2019-02-17T17:39:10.498Z,46.00
2019-02-17T17:41:44.699Z,53.00
2019-02-17T17:44:16.937Z,48.27
2019-02-17T17:46:49.048Z,43.30
2019-02-17T17:49:19.742Z,45.30
2019-02-17T17:51:50.611Z,45.67
2019-02-17T17:54:21.823Z,41.90
2019-02-17T17:56:52.552Z,36.90
2019-02-17T17:59:23.253Z,41.40
2019-02-17T18:01:54.270Z,41.43
2019-02-17T18:04:25.526Z,44.37
2019-02-17T18:06:57.158Z,42.50
2019-02-17T18:09:27.839Z,40.40
2019-02-17T18:11:59.907Z,49.97
2019-02-17T18:14:30.794Z,48.30
2019-02-17T18:17:01.612Z,46.60
2019-02-17T18:19:33.314Z,49.30
2019-02-17T18:22:03.963Z,49.47
2019-02-17T18:24:38.698Z,51.93
2019-02-17T18:27:09.097Z,52.20
2019-02-17T18:29:40.005Z,52.70
2019-02-17T18:32:11.119Z,61.80
2019-02-17T18:34:41.899Z,59.10
2019-02-17T18:37:12.331Z,53.03
2019-02-17T18:39:42.929Z,48.37
2019-02-17T18:42:14.747Z,58.40
2019-02-17T18:44:45.403Z,67.40
2019-02-17T18:47:16.911Z,53.23
2019-02-17T18:49:48.335Z,54.67
2019-02-17T18:52:19.623Z,65.60
2019-02-17T18:54:52.702Z,71.63
2019-02-17T18:57:25.599Z,75.03
2019-02-17T18:59:57.088Z,84.17
2019-02-17T19:02:27.821Z,75.33
2019-02-17T19:05:01.072Z,55.40
2019-02-17T19:07:32.119Z,49.93
2019-02-17T19:10:03.118Z,48.17
2019-02-17T19:12:36.833Z,45.33
2019-02-17T19:15:08.669Z,46.17
2019-02-17T19:17:42.201Z,54.67
2019-02-17T19:20:15.908Z,54.03
2019-02-17T19:22:50.281Z,47.43
2019-02-17T19:25:21.441Z,42.57
2019-02-17T19:27:52.485Z,45.90
2019-02-17T19:30:23.551Z,39.93
2019-02-17T19:32:54.196Z,41.40
2019-02-17T19:35:25.403Z,42.10
2019-02-17T19:37:56.990Z,43.00
2019-02-17T19:40:28.658Z,47.83
2019-02-17T19:42:59.506Z,42.30
2019-02-17T19:45:30.618Z,47.90
2019-02-17T19:48:04.142Z,47.10
2019-02-17T19:50:35.592Z,51.60
2019-02-17T19:53:06.573Z,47.43
2019-02-17T19:55:38.270Z,47.07
2019-02-17T19:58:10.039Z,46.53
2019-02-17T20:00:41.031Z,54.73
2019-02-17T20:03:37.859Z,55.47
2019-02-17T20:06:09.114Z,47.10
2019-02-17T20:08:39.854Z,43.23
2019-02-17T20:11:10.323Z,43.53
2019-02-17T20:13:41.793Z,42.50
2019-02-17T20:16:12.333Z,42.30
2019-02-17T20:18:43.131Z,45.13
2019-02-17T20:21:14.721Z,50.80
2019-02-17T20:23:46.900Z,48.90
2019-02-17T20:26:18.206Z,46.67
2019-02-17T20:28:57.256Z,50.83
2019-02-17T20:31:27.058Z,48.37
2019-02-17T20:33:57.791Z,46.00
2019-02-17T20:36:28.641Z,48.67
2019-02-17T20:38:59.526Z,54.60
2019-02-17T20:41:30.909Z,43.93
2019-02-17T20:44:02.904Z,39.00
2019-02-17T20:46:34.430Z,34.40
2019-02-17T20:49:05.472Z,27.53
2019-02-17T20:51:36.175Z,29.83
2019-02-17T20:54:07.151Z,26.27
2019-02-17T20:56:38.531Z,22.90
2019-02-17T20:59:10.976Z,28.50
2019-02-17T21:01:42.705Z,28.10
2019-02-17T21:04:13.803Z,31.40
2019-02-17T21:06:48.061Z,25.87
2019-02-17T21:09:20.092Z,23.10
2019-02-17T21:11:51.309Z,29.73
2019-02-17T21:14:22.443Z,28.77
2019-02-17T21:16:53.390Z,29.70
2019-02-17T21:19:24.905Z,30.90
2019-02-17T21:21:55.575Z,29.50
2019-02-17T21:24:27.039Z,30.00
2019-02-17T21:26:58.364Z,26.13
2019-02-17T21:29:30.212Z,26.30
2019-02-17T21:32:00.984Z,27.67
2019-02-17T21:34:31.995Z,26.00
2019-02-17T21:37:03.957Z,26.67
2019-02-17T21:39:34.345Z,25.30
2019-02-17T21:42:05.309Z,25.17
2019-02-17T21:44:36.191Z,25.53
2019-02-17T21:47:07.215Z,20.57
2019-02-17T21:49:38.444Z,20.20
2019-02-17T21:52:09.565Z,17.83
2019-02-17T21:54:39.988Z,18.43
2019-02-17T21:57:10.968Z,15.17
2019-02-17T21:59:42.443Z,18.60
2019-02-17T22:02:14.172Z,17.07
2019-02-17T22:04:45.425Z,22.70
2019-02-17T22:07:16.977Z,23.67
2019-02-17T22:09:48.178Z,25.07
2019-02-17T22:12:19.049Z,22.30
2019-02-17T22:14:50.169Z,28.30
2019-02-17T22:17:21.117Z,23.03
2019-02-17T22:19:51.811Z,27.63
2019-02-17T22:22:23.052Z,22.30
2019-02-17T22:24:54.150Z,23.33
2019-02-17T22:27:25.171Z,23.23
2019-02-17T22:29:56.439Z,22.80
2019-02-17T22:32:28.443Z,20.20
2019-02-17T22:34:59.222Z,20.03
2019-02-17T22:37:29.849Z,20.37
2019-02-17T22:40:00.615Z,18.77
2019-02-17T22:42:31.503Z,24.47
2019-02-17T22:45:02.325Z,20.57
2019-02-17T22:47:33.230Z,22.13
2019-02-17T22:50:07.617Z,20.83
2019-02-17T22:52:38.680Z,22.63
2019-02-17T22:55:10.203Z,18.30
2019-02-17T22:57:40.960Z,15.60
2019-02-17T23:00:18.938Z,16.73
2019-02-17T23:02:49.770Z,16.77
2019-02-17T23:05:20.596Z,15.30
2019-02-17T23:07:51.589Z,15.13
2019-02-17T23:10:22.413Z,15.57
2019-02-17T23:12:52.963Z,14.67
2019-02-17T23:15:24.156Z,14.37
2019-02-17T23:17:54.993Z,14.90
2019-02-17T23:20:26.209Z,14.17
2019-02-17T23:22:57.242Z,13.73
2019-02-17T23:25:28.675Z,15.00
2019-02-17T23:27:59.196Z,14.80
2019-02-17T23:30:30.074Z,14.73
2019-02-17T23:33:02.087Z,14.10
2019-02-17T23:35:34.350Z,13.03
2019-02-17T23:38:05.238Z,15.30
2019-02-17T23:40:36.334Z,14.50
2019-02-17T23:43:07.034Z,15.10
2019-02-17T23:45:37.966Z,14.20
2019-02-17T23:48:08.849Z,14.13
2019-02-17T23:50:40.114Z,15.97
2019-02-17T23:53:11.116Z,13.57
2019-02-17T23:55:42.056Z,15.50
2019-02-17T23:58:12.831Z,14.47
